Time;durP1;ratioP1;P1;durP2;ratioP2;P2;SDS_P1;SDS_P2;PMS_P1;PMS_P2;Temp;Humidity;BMP_temperature;BMP_pressure;BME280_temperature;BME280_humidity;BME280_pressure;Samples;Min_cycle;Max_cycle;Signal;HPM_P1;HPM_P2
2021/07/31 00:01:07;;;;;;;19.73;12.25;;;;;;;;;;5054665;28;20097;-72
2021/07/31 00:03:37;;;;;;;33.20;17.55;;;;;;;;;;5077691;28;20390;-72
2021/07/31 00:06:05;;;;;;;29.50;20.27;;;;;;;;;;5064017;28;20040;-73
2021/07/31 00:08:32;;;;;;;34.63;19.83;;;;;;;;;;5064857;28;20048;-71
2021/07/31 00:10:59;;;;;;;28.48;13.90;;;;;;;;;;5064805;28;20086;-70
2021/07/31 00:13:27;;;;;;;26.50;16.15;;;;;;;;;;5077225;28;20040;-71
2021/07/31 00:15:54;;;;;;;24.38;14.35;;;;;;;;;;5104023;28;20035;-71
2021/07/31 00:18:22;;;;;;;18.25;11.13;;;;;;;;;;5104355;28;20062;-71
2021/07/31 00:20:49;;;;;;;16.15;10.88;;;;;;;;;;5095584;28;20119;-72
2021/07/31 00:23:15;;;;;;;19.38;12.27;;;;;;;;;;5081494;28;20184;-70
2021/07/31 00:25:42;;;;;;;21.70;12.48;;;;;;;;;;5068642;28;20156;-71
2021/07/31 00:28:08;;;;;;;21.98;12.57;;;;;;;;;;5104469;28;20134;-70
2021/07/31 00:30:35;;;;;;;22.40;12.05;;;;;;;;;;5103102;28;20401;-70
2021/07/31 00:33:01;;;;;;;23.88;13.30;;;;;;;;;;5084630;28;20052;-71
2021/07/31 00:35:28;;;;;;;27.95;14.98;;;;;;;;;;5102351;28;20792;-72
2021/07/31 00:37:56;;;;;;;27.73;14.73;;;;;;;;;;5084512;28;20130;-70
2021/07/31 00:40:22;;;;;;;25.60;15.43;;;;;;;;;;5074691;28;20063;-74
2021/07/31 00:42:49;;;;;;;26.30;16.60;;;;;;;;;;5104162;28;20043;-70
2021/07/31 00:45:16;;;;;;;29.02;17.58;;;;;;;;;;5104019;28;20039;-70
2021/07/31 00:47:44;;;;;;;29.17;17.33;;;;;;;;;;5104083;28;20068;-73
2021/07/31 00:50:11;;;;;;;20.55;12.77;;;;;;;;;;5103455;28;20040;-70
2021/07/31 00:52:40;;;;;;;22.38;13.10;;;;;;;;;;5102961;28;20130;-70
2021/07/31 00:55:10;;;;;;;22.35;12.45;;;;;;;;;;5076681;28;20052;-70
2021/07/31 00:57:39;;;;;;;19.98;10.75;;;;;;;;;;5074535;28;20043;-71
2021/07/31 01:00:08;;;;;;;17.70;9.10;;;;;;;;;;5099576;28;20512;-71
2021/07/31 01:02:37;;;;;;;17.30;9.25;;;;;;;;;;5103454;28;20127;-75
2021/07/31 01:05:04;;;;;;;16.63;9.30;;;;;;;;;;5086913;28;20119;-70
2021/07/31 01:07:31;;;;;;;13.25;7.95;;;;;;;;;;5102410;28;20051;-70
2021/07/31 01:09:58;;;;;;;16.95;9.02;;;;;;;;;;5086148;28;20531;-70
2021/07/31 01:12:24;;;;;;;15.68;9.25;;;;;;;;;;5104764;28;20046;-71
2021/07/31 01:14:51;;;;;;;19.65;8.73;;;;;;;;;;5061617;28;20417;-71
2021/07/31 01:17:18;;;;;;;19.75;10.23;;;;;;;;;;5096534;28;20052;-71
2021/07/31 01:19:44;;;;;;;17.42;10.25;;;;;;;;;;5074943;28;20089;-71
2021/07/31 01:22:11;;;;;;;18.10;10.02;;;;;;;;;;5103031;28;20477;-71
2021/07/31 01:24:37;;;;;;;16.35;10.02;;;;;;;;;;5104122;28;20047;-73
2021/07/31 01:27:04;;;;;;;19.33;10.18;;;;;;;;;;5103353;28;20104;-73
2021/07/31 01:29:31;;;;;;;20.52;12.40;;;;;;;;;;5104665;28;20060;-71
2021/07/31 01:31:58;;;;;;;21.45;12.05;;;;;;;;;;5080908;28;20051;-72
2021/07/31 01:34:25;;;;;;;19.73;11.10;;;;;;;;;;5069484;28;20115;-71
2021/07/31 01:36:51;;;;;;;23.85;12.52;;;;;;;;;;5089852;28;20054;-73
2021/07/31 01:39:18;;;;;;;20.75;12.02;;;;;;;;;;5080055;28;20047;-72
2021/07/31 01:41:45;;;;;;;18.98;12.15;;;;;;;;;;5080721;28;20541;-70
2021/07/31 01:44:12;;;;;;;20.27;12.35;;;;;;;;;;5091520;28;20505;-74
2021/07/31 01:46:39;;;;;;;18.55;10.70;;;;;;;;;;5091122;28;20127;-73
2021/07/31 01:49:05;;;;;;;21.60;10.85;;;;;;;;;;5093729;28;20044;-72
2021/07/31 01:51:32;;;;;;;17.25;9.32;;;;;;;;;;5096189;28;20058;-72
2021/07/31 01:53:58;;;;;;;18.73;12.13;;;;;;;;;;5095456;28;21110;-72
2021/07/31 01:56:26;;;;;;;16.38;9.88;;;;;;;;;;5097093;28;20421;-74
2021/07/31 01:58:53;;;;;;;18.30;10.07;;;;;;;;;;5093917;28;20044;-71
2021/07/31 02:01:20;;;;;;;19.15;10.90;;;;;;;;;;5073296;28;20093;-71
2021/07/31 02:03:48;;;;;;;21.25;11.23;;;;;;;;;;5095255;28;20092;-71
2021/07/31 02:06:18;;;;;;;20.10;9.43;;;;;;;;;;5091246;28;20375;-72
2021/07/31 02:08:44;;;;;;;21.80;11.25;;;;;;;;;;5091483;28;20048;-71
2021/07/31 02:11:11;;;;;;;15.32;9.55;;;;;;;;;;5092970;28;20038;-71
2021/07/31 02:13:38;;;;;;;19.27;10.73;;;;;;;;;;5074333;28;20143;-71
2021/07/31 02:16:04;;;;;;;17.15;9.93;;;;;;;;;;5090658;28;20055;-73
2021/07/31 02:18:31;;;;;;;18.77;8.70;;;;;;;;;;5097383;28;21805;-71
2021/07/31 02:20:58;;;;;;;14.73;8.13;;;;;;;;;;5084418;28;20036;-71
2021/07/31 02:23:25;;;;;;;16.13;8.75;;;;;;;;;;5091243;28;20036;-71
2021/07/31 02:25:51;;;;;;;17.25;9.85;;;;;;;;;;5072411;28;20043;-71
2021/07/31 02:28:18;;;;;;;16.42;9.15;;;;;;;;;;5091098;28;20552;-71
2021/07/31 02:30:44;;;;;;;19.20;8.77;;;;;;;;;;5071747;28;20127;-72
2021/07/31 02:33:11;;;;;;;19.88;10.65;;;;;;;;;;5074202;28;20031;-73
2021/07/31 02:35:37;;;;;;;19.90;13.02;;;;;;;;;;5090042;28;20036;-71
2021/07/31 02:38:05;;;;;;;35.58;18.77;;;;;;;;;;5093102;28;20048;-72
2021/07/31 02:40:32;;;;;;;27.17;16.52;;;;;;;;;;5074085;28;20481;-71
2021/07/31 02:42:58;;;;;;;61.53;35.28;;;;;;;;;;5077797;28;20050;-71
2021/07/31 02:45:25;;;;;;;45.10;27.05;;;;;;;;;;5091547;28;20486;-73
2021/07/31 02:47:52;;;;;;;41.08;23.20;;;;;;;;;;5080599;28;20051;-70
2021/07/31 02:50:18;;;;;;;39.08;23.00;;;;;;;;;;5081130;28;20055;-72
2021/07/31 02:52:45;;;;;;;36.85;24.10;;;;;;;;;;5074563;28;20485;-71
2021/07/31 02:55:12;;;;;;;43.45;23.60;;;;;;;;;;5073084;28;20043;-71
2021/07/31 02:57:38;;;;;;;42.22;24.38;;;;;;;;;;5091505;28;20036;-71
2021/07/31 03:00:06;;;;;;;31.48;19.60;;;;;;;;;;5074564;28;20131;-72
2021/07/31 03:02:33;;;;;;;34.17;18.85;;;;;;;;;;5090837;28;20079;-72
2021/07/31 03:05:00;;;;;;;26.95;15.38;;;;;;;;;;5091556;28;20031;-71
2021/07/31 03:07:26;;;;;;;22.63;12.80;;;;;;;;;;5073888;28;20122;-72
2021/07/31 03:09:53;;;;;;;25.70;12.15;;;;;;;;;;5073123;28;20122;-73
2021/07/31 03:12:20;;;;;;;25.65;11.85;;;;;;;;;;5091231;28;20493;-71
2021/07/31 03:14:47;;;;;;;18.70;11.02;;;;;;;;;;5093145;28;20056;-72
2021/07/31 03:17:16;;;;;;;17.38;9.70;;;;;;;;;;5090305;28;20406;-73
2021/07/31 03:19:44;;;;;;;17.25;10.20;;;;;;;;;;5069786;28;20040;-72
2021/07/31 03:22:11;;;;;;;16.88;9.23;;;;;;;;;;5088227;28;20059;-74
2021/07/31 03:24:37;;;;;;;17.75;10.70;;;;;;;;;;5102027;28;20036;-72
2021/07/31 03:27:06;;;;;;;17.77;9.77;;;;;;;;;;5084637;28;20165;-72
2021/07/31 03:29:33;;;;;;;21.48;12.27;;;;;;;;;;5084068;28;20059;-72
2021/07/31 03:32:00;;;;;;;19.02;11.88;;;;;;;;;;5100533;28;20047;-73
2021/07/31 03:34:27;;;;;;;19.10;11.63;;;;;;;;;;5102376;28;20490;-72
2021/07/31 03:36:55;;;;;;;19.85;12.60;;;;;;;;;;5081584;28;20409;-73
2021/07/31 03:39:25;;;;;;;19.73;11.57;;;;;;;;;;5084197;28;20048;-75
2021/07/31 03:41:56;;;;;;;19.88;13.05;;;;;;;;;;5101720;28;20040;-71
2021/07/31 03:44:22;;;;;;;21.33;14.10;;;;;;;;;;5101042;28;20073;-72
2021/07/31 03:46:49;;;;;;;23.45;14.27;;;;;;;;;;5102408;28;20536;-72
2021/07/31 03:49:16;;;;;;;23.08;14.98;;;;;;;;;;5084068;28;20043;-72
2021/07/31 03:51:43;;;;;;;23.90;15.65;;;;;;;;;;5084034;28;20047;-73
2021/07/31 03:54:10;;;;;;;27.17;16.63;;;;;;;;;;5101715;28;20070;-72
2021/07/31 03:56:36;;;;;;;27.75;17.73;;;;;;;;;;5102154;28;20040;-73
2021/07/31 03:59:03;;;;;;;30.88;18.48;;;;;;;;;;5086630;28;20048;-72
2021/07/31 04:01:29;;;;;;;30.83;17.95;;;;;;;;;;5105232;28;20040;-73
2021/07/31 04:03:56;;;;;;;29.30;18.15;;;;;;;;;;5106005;28;20043;-72
2021/07/31 04:06:23;;;;;;;29.30;18.52;;;;;;;;;;5104468;28;20028;-73
2021/07/31 04:08:49;;;;;;;32.70;19.13;;;;;;;;;;5078187;28;20051;-72
2021/07/31 04:11:16;;;;;;;29.35;19.05;;;;;;;;;;5087825;28;20051;-72
2021/07/31 04:13:43;;;;;;;27.13;18.38;;;;;;;;;;5104701;28;20042;-72
2021/07/31 04:16:10;;;;;;;27.05;17.90;;;;;;;;;;5087872;28;20131;-72
2021/07/31 04:18:37;;;;;;;31.20;19.25;;;;;;;;;;5105664;28;20043;-72
2021/07/31 04:21:07;;;;;;;27.02;17.83;;;;;;;;;;5106181;28;20119;-72
2021/07/31 04:23:35;;;;;;;28.92;18.88;;;;;;;;;;5104176;28;20074;-72
2021/07/31 04:26:16;;;;;;;25.00;18.10;;;;;;;;;;5087133;28;20494;-72
2021/07/31 04:28:46;;;;;;;29.90;18.23;;;;;;;;;;5105343;28;20089;-71
2021/07/31 04:31:14;;;;;;;27.88;17.42;;;;;;;;;;5105036;28;20035;-72
2021/07/31 04:33:42;;;;;;;30.13;17.58;;;;;;;;;;5105569;28;20035;-72
2021/07/31 04:36:09;;;;;;;28.88;16.85;;;;;;;;;;5087056;28;20539;-72
2021/07/31 04:38:36;;;;;;;30.38;19.05;;;;;;;;;;5067469;28;20044;-72
2021/07/31 04:41:03;;;;;;;29.33;18.63;;;;;;;;;;5091942;28;20047;-74
2021/07/31 04:43:32;;;;;;;30.42;19.02;;;;;;;;;;5105057;28;20036;-71
2021/07/31 04:45:59;;;;;;;27.25;16.92;;;;;;;;;;5071408;28;20040;-71
2021/07/31 04:48:26;;;;;;;28.58;18.58;;;;;;;;;;5084278;28;20401;-73
2021/07/31 04:51:03;;;;;;;28.20;19.20;;;;;;;;;;5089414;28;20310;-70
2021/07/31 04:53:30;;;;;;;30.92;18.83;;;;;;;;;;5078542;28;20043;-71
2021/07/31 04:56:00;;;;;;;24.67;15.13;;;;;;;;;;5097275;28;20126;-71
2021/07/31 04:58:27;;;;;;;21.13;12.90;;;;;;;;;;5088982;28;20043;-70
2021/07/31 05:01:00;;;;;;;16.50;10.57;;;;;;;;;;5097489;28;20048;-70
2021/07/31 05:03:28;;;;;;;19.00;11.55;;;;;;;;;;5084542;28;20063;-72
2021/07/31 05:05:55;;;;;;;18.67;12.65;;;;;;;;;;5084162;28;20036;-70
2021/07/31 05:08:24;;;;;;;21.73;12.98;;;;;;;;;;5084232;28;20127;-70
2021/07/31 05:10:53;;;;;;;20.45;13.38;;;;;;;;;;5065833;28;20052;-70
2021/07/31 05:13:19;;;;;;;17.83;12.23;;;;;;;;;;5084276;28;20038;-70
2021/07/31 05:15:48;;;;;;;20.50;12.80;;;;;;;;;;5068363;28;20537;-71
2021/07/31 05:18:15;;;;;;;18.75;12.00;;;;;;;;;;5075950;28;20035;-70
2021/07/31 05:20:44;;;;;;;18.15;11.38;;;;;;;;;;5104788;28;20043;-73
2021/07/31 05:23:12;;;;;;;18.90;11.93;;;;;;;;;;5104427;28;20462;-71
2021/07/31 05:25:39;;;;;;;20.88;13.10;;;;;;;;;;5095266;28;20101;-71
2021/07/31 05:28:05;;;;;;;20.73;11.77;;;;;;;;;;5067805;28;20067;-70
2021/07/31 05:30:32;;;;;;;17.45;11.15;;;;;;;;;;5099022;28;20444;-70
2021/07/31 05:32:58;;;;;;;15.38;10.20;;;;;;;;;;5094427;28;20058;-70
2021/07/31 05:35:25;;;;;;;16.52;10.65;;;;;;;;;;5083817;28;20036;-71
2021/07/31 05:37:52;;;;;;;18.65;10.40;;;;;;;;;;5087175;28;20135;-73
2021/07/31 05:40:18;;;;;;;15.32;9.70;;;;;;;;;;5093070;28;20040;-71
2021/07/31 05:42:45;;;;;;;16.00;9.20;;;;;;;;;;5089460;28;20051;-71
2021/07/31 05:45:11;;;;;;;13.52;8.98;;;;;;;;;;5103887;28;20042;-71
2021/07/31 05:47:38;;;;;;;13.80;8.43;;;;;;;;;;5104301;28;20154;-72
2021/07/31 05:50:07;;;;;;;13.75;8.48;;;;;;;;;;5085042;28;20078;-71
2021/07/31 05:52:38;;;;;;;12.88;8.05;;;;;;;;;;5065718;28;20084;-72
2021/07/31 05:55:09;;;;;;;14.05;7.95;;;;;;;;;;5081433;28;20047;-72
2021/07/31 05:57:35;;;;;;;13.75;8.82;;;;;;;;;;5065483;28;20059;-72
2021/07/31 06:00:03;;;;;;;12.52;8.60;;;;;;;;;;5065438;28;20048;-71
2021/07/31 06:02:30;;;;;;;14.82;8.98;;;;;;;;;;5093627;28;20036;-71
2021/07/31 06:04:56;;;;;;;15.35;8.60;;;;;;;;;;5098777;28;20063;-72
2021/07/31 06:07:23;;;;;;;13.38;8.30;;;;;;;;;;5092980;28;20127;-71
2021/07/31 06:09:53;;;;;;;13.52;7.03;;;;;;;;;;5083415;28;20437;-71
2021/07/31 06:12:23;;;;;;;13.88;7.88;;;;;;;;;;5082132;28;20047;-71
2021/07/31 06:14:50;;;;;;;14.55;8.57;;;;;;;;;;5099818;28;20061;-73
2021/07/31 06:17:17;;;;;;;15.25;8.38;;;;;;;;;;5103949;28;20048;-71
2021/07/31 06:19:43;;;;;;;14.50;8.13;;;;;;;;;;5084656;28;20039;-72
2021/07/31 06:22:10;;;;;;;17.20;9.80;;;;;;;;;;5103536;28;20051;-71
2021/07/31 06:24:36;;;;;;;14.23;7.75;;;;;;;;;;5103107;28;20050;-73
2021/07/31 06:27:05;;;;;;;15.25;7.30;;;;;;;;;;5072833;28;20146;-72
2021/07/31 06:29:34;;;;;;;13.07;8.15;;;;;;;;;;5081059;28;20319;-72
2021/07/31 06:32:02;;;;;;;13.80;7.72;;;;;;;;;;5086212;28;20402;-71
2021/07/31 06:34:29;;;;;;;15.52;8.15;;;;;;;;;;5100037;28;20058;-74
2021/07/31 06:36:55;;;;;;;15.90;7.28;;;;;;;;;;5067793;28;20403;-73
2021/07/31 06:39:22;;;;;;;14.43;8.75;;;;;;;;;;5090049;28;20485;-72
2021/07/31 06:41:48;;;;;;;13.50;7.65;;;;;;;;;;5103072;28;20040;-72
2021/07/31 06:44:15;;;;;;;13.50;7.90;;;;;;;;;;5103668;28;20422;-73
2021/07/31 06:46:41;;;;;;;14.00;8.38;;;;;;;;;;5084715;28;20040;-72
2021/07/31 06:49:08;;;;;;;13.52;8.48;;;;;;;;;;5103167;28;20051;-72
2021/07/31 06:51:36;;;;;;;19.52;9.68;;;;;;;;;;5098067;28;20036;-72
2021/07/31 06:54:03;;;;;;;13.50;7.70;;;;;;;;;;5081707;28;20375;-71
2021/07/31 06:56:32;;;;;;;18.10;8.73;;;;;;;;;;5082955;28;20036;-72
2021/07/31 06:58:59;;;;;;;19.13;9.25;;;;;;;;;;5082170;28;20058;-72
2021/07/31 07:01:26;;;;;;;17.92;9.23;;;;;;;;;;5082283;28;20590;-72
2021/07/31 07:03:53;;;;;;;13.98;9.07;;;;;;;;;;5082749;28;20056;-75
2021/07/31 07:06:20;;;;;;;13.45;8.75;;;;;;;;;;5082399;28;20145;-72
2021/07/31 07:08:46;;;;;;;17.27;8.90;;;;;;;;;;5082688;28;20127;-73
2021/07/31 07:11:15;;;;;;;18.13;9.38;;;;;;;;;;5064388;28;20040;-72
2021/07/31 07:13:42;;;;;;;18.85;9.35;;;;;;;;;;5082267;28;20040;-71
2021/07/31 07:16:08;;;;;;;16.70;9.63;;;;;;;;;;5082372;28;20036;-72
2021/07/31 07:18:35;;;;;;;18.33;9.98;;;;;;;;;;5063921;28;20898;-72
2021/07/31 07:21:07;;;;;;;19.67;10.57;;;;;;;;;;5082769;28;20074;-72
2021/07/31 07:23:34;;;;;;;16.90;9.68;;;;;;;;;;5064435;28;20127;-72
2021/07/31 07:26:01;;;;;;;17.65;10.15;;;;;;;;;;5081870;28;20122;-75
2021/07/31 07:28:27;;;;;;;20.73;10.13;;;;;;;;;;5082770;28;20040;-72
2021/07/31 07:30:54;;;;;;;20.95;9.70;;;;;;;;;;5081411;28;20067;-72
2021/07/31 07:33:20;;;;;;;17.50;10.48;;;;;;;;;;5085479;28;20122;-72
2021/07/31 07:35:47;;;;;;;14.48;9.10;;;;;;;;;;5086231;28;20402;-72
2021/07/31 07:38:14;;;;;;;18.42;10.30;;;;;;;;;;5086385;28;20127;-72
2021/07/31 07:40:43;;;;;;;20.75;9.25;;;;;;;;;;5067934;28;20451;-72
2021/07/31 07:43:10;;;;;;;19.88;10.18;;;;;;;;;;5085756;28;20497;-72
2021/07/31 07:45:36;;;;;;;19.77;10.55;;;;;;;;;;5086276;28;20033;-72
2021/07/31 07:48:03;;;;;;;18.73;8.63;;;;;;;;;;5085355;28;20418;-72
2021/07/31 07:50:29;;;;;;;20.77;8.65;;;;;;;;;;5080598;28;20174;-73
2021/07/31 07:52:59;;;;;;;18.92;9.25;;;;;;;;;;5085202;28;20075;-72
2021/07/31 07:55:25;;;;;;;20.38;9.55;;;;;;;;;;5084969;28;20032;-73
2021/07/31 07:57:52;;;;;;;17.48;8.88;;;;;;;;;;5085872;28;20047;-72
2021/07/31 08:00:19;;;;;;;21.75;10.10;;;;;;;;;;5085546;28;20043;-73
2021/07/31 08:02:46;;;;;;;17.73;9.32;;;;;;;;;;5085744;28;20124;-71
2021/07/31 08:05:13;;;;;;;17.30;9.73;;;;;;;;;;5085436;28;20048;-71
2021/07/31 08:07:41;;;;;;;23.33;10.00;;;;;;;;;;5085403;28;20092;-73
2021/07/31 08:10:10;;;;;;;14.02;9.80;;;;;;;;;;5085851;28;20073;-73
2021/07/31 08:12:36;;;;;;;14.77;8.70;;;;;;;;;;5085695;28;20036;-72
2021/07/31 08:15:03;;;;;;;22.92;9.82;;;;;;;;;;5085874;28;20054;-72
2021/07/31 08:17:30;;;;;;;13.88;8.68;;;;;;;;;;5067273;28;20040;-72
2021/07/31 08:19:56;;;;;;;18.58;9.15;;;;;;;;;;5085814;28;20105;-72
2021/07/31 08:22:22;;;;;;;17.05;8.77;;;;;;;;;;5067868;28;20362;-71
2021/07/31 08:24:52;;;;;;;18.58;9.27;;;;;;;;;;5085275;28;20046;-72
2021/07/31 08:27:18;;;;;;;15.75;9.52;;;;;;;;;;5085104;28;20396;-73
2021/07/31 08:29:45;;;;;;;15.90;9.02;;;;;;;;;;5085050;28;20044;-71
2021/07/31 08:32:11;;;;;;;17.40;8.85;;;;;;;;;;5084792;28;20446;-72
2021/07/31 08:34:38;;;;;;;15.95;8.48;;;;;;;;;;5085296;28;20123;-72
2021/07/31 08:37:08;;;;;;;18.63;9.15;;;;;;;;;;5085094;28;20044;-72
2021/07/31 08:39:37;;;;;;;14.63;8.18;;;;;;;;;;5066617;28;20541;-71
2021/07/31 08:42:05;;;;;;;34.58;19.55;;;;;;;;;;5084202;28;20050;-71
2021/07/31 08:44:35;;;;;;;35.20;23.40;;;;;;;;;;5066476;28;20072;-72
2021/07/31 08:47:04;;;;;;;19.67;12.40;;;;;;;;;;5085065;28;20054;-73
2021/07/31 08:49:34;;;;;;;31.55;20.92;;;;;;;;;;5084221;28;20039;-72
2021/07/31 08:52:03;;;;;;;20.65;12.93;;;;;;;;;;5065596;28;20087;-72
2021/07/31 08:54:30;;;;;;;19.20;12.88;;;;;;;;;;5065696;28;20141;-71
2021/07/31 08:56:57;;;;;;;19.52;9.38;;;;;;;;;;5066921;28;20383;-72
2021/07/31 08:59:27;;;;;;;18.63;10.75;;;;;;;;;;5084559;28;20044;-73
2021/07/31 09:01:56;;;;;;;15.65;9.73;;;;;;;;;;5085033;28;20094;-72
2021/07/31 09:04:22;;;;;;;;;;;;;;;;;;5083651;28;20072;-72
2021/07/31 09:06:50;;;;;;;18.50;10.98;;;;;;;;;;5084330;28;21575;-72
2021/07/31 09:09:28;;;;;;;21.45;10.63;;;;;;;;;;5083671;28;20067;-72
2021/07/31 09:12:12;;;;;;;16.95;11.70;;;;;;;;;;5065849;28;20076;-72
2021/07/31 09:14:47;;;;;;;23.52;10.93;;;;;;;;;;5066167;28;20519;-72
2021/07/31 09:17:25;;;;;;;20.15;11.18;;;;;;;;;;5083297;28;20032;-72
2021/07/31 09:19:53;;;;;;;20.52;10.63;;;;;;;;;;5083762;28;20032;-72
2021/07/31 09:22:20;;;;;;;21.15;10.82;;;;;;;;;;5084001;28;20047;-72
2021/07/31 09:25:10;;;;;;;16.92;9.43;;;;;;;;;;5065992;28;20040;-71
2021/07/31 09:27:36;;;;;;;15.60;9.52;;;;;;;;;;5065376;28;20036;-73
2021/07/31 09:30:05;;;;;;;16.77;10.07;;;;;;;;;;5083886;28;20059;-72
2021/07/31 09:32:44;;;;;;;18.23;10.32;;;;;;;;;;5084195;28;20036;-72
2021/07/31 09:35:21;;;;;;;17.58;10.60;;;;;;;;;;5083359;28;20123;-72
2021/07/31 09:37:49;;;;;;;20.60;11.07;;;;;;;;;;5065607;28;20044;-72
2021/07/31 09:40:30;;;;;;;22.58;13.13;;;;;;;;;;5064786;28;20500;-72
2021/07/31 09:43:11;;;;;;;22.55;13.30;;;;;;;;;;5083260;28;20498;-72
2021/07/31 09:45:38;;;;;;;22.75;11.40;;;;;;;;;;5083376;28;20039;-74
2021/07/31 09:48:06;;;;;;;23.27;11.90;;;;;;;;;;5083701;28;20585;-72
2021/07/31 09:50:43;;;;;;;20.55;11.30;;;;;;;;;;5065642;28;20039;-72
2021/07/31 09:53:15;;;;;;;21.85;11.30;;;;;;;;;;5083184;28;20036;-72
2021/07/31 09:55:47;;;;;;;17.63;11.27;;;;;;;;;;5064447;28;20048;-72
2021/07/31 09:58:16;;;;;;;20.50;11.48;;;;;;;;;;5082718;28;20032;-72
2021/07/31 10:00:45;;;;;;;;;;;;;;;;;;5065264;28;20036;-72
2021/07/31 10:03:15;;;;;;;24.20;16.30;;;;;;;;;;5083421;28;20014;-73
2021/07/31 10:05:43;;;;;;;30.10;17.67;;;;;;;;;;5083703;28;20052;-72
2021/07/31 10:08:11;;;;;;;29.45;18.00;;;;;;;;;;5082638;28;20085;-74
2021/07/31 10:10:39;;;;;;;26.08;17.88;;;;;;;;;;5082522;28;20036;-75
2021/07/31 10:13:07;;;;;;;19.05;14.05;;;;;;;;;;5083343;28;20494;-72
2021/07/31 10:15:34;;;;;;;23.40;13.23;;;;;;;;;;5082953;28;20036;-72
2021/07/31 10:18:11;;;;;;;20.48;12.63;;;;;;;;;;5064528;28;20048;-73
2021/07/31 10:20:38;;;;;;;19.27;10.65;;;;;;;;;;5083189;28;20058;-72
2021/07/31 10:23:07;;;;;;;25.50;17.55;;;;;;;;;;5082050;28;20102;-73
2021/07/31 10:25:34;;;;;;;23.65;12.70;;;;;;;;;;5083234;28;20040;-72
2021/07/31 10:28:23;;;;;;;23.25;14.10;;;;;;;;;;5082367;28;20100;-72
2021/07/31 10:30:50;;;;;;;31.63;17.08;;;;;;;;;;5064257;28;20056;-72
2021/07/31 10:33:46;;;;;;;38.95;18.33;;;;;;;;;;5083134;28;20693;-72
2021/07/31 10:36:35;;;;;;;52.70;27.67;;;;;;;;;;5069609;28;20064;-72
2021/07/31 10:39:27;;;;;;;74.20;37.25;;;;;;;;;;5082453;28;20047;-71
2021/07/31 10:41:55;;;;;;;80.70;39.80;;;;;;;;;;5082382;28;20071;-71
2021/07/31 10:44:22;;;;;;;71.10;35.10;;;;;;;;;;5082590;28;20060;-72
2021/07/31 10:46:49;;;;;;;52.63;27.70;;;;;;;;;;5064912;28;20532;-72
2021/07/31 10:49:36;;;;;;;40.20;21.52;;;;;;;;;;5083139;28;20058;-71
2021/07/31 10:52:02;;;;;;;47.95;26.60;;;;;;;;;;5082204;28;20039;-72
2021/07/31 10:55:02;;;;;;;55.97;30.83;;;;;;;;;;5082543;28;20052;-74
2021/07/31 10:58:13;;;;;;;55.83;30.08;;;;;;;;;;5082103;28;20754;-72
2021/07/31 11:00:41;;;;;;;47.28;26.58;;;;;;;;;;5019167;28;20050;-72
2021/07/31 11:03:23;;;;;;;43.67;24.20;;;;;;;;;;5001111;28;20041;-72
2021/07/31 11:05:50;;;;;;;38.42;20.52;;;;;;;;;;5059398;28;20532;-72
2021/07/31 11:08:18;;;;;;;35.97;17.80;;;;;;;;;;5083539;28;20036;-71
2021/07/31 11:10:51;;;;;;;34.70;18.50;;;;;;;;;;5085049;28;20040;-71
2021/07/31 11:13:17;;;;;;;38.35;18.42;;;;;;;;;;5084920;28;20122;-71
2021/07/31 11:16:23;;;;;;;33.78;16.73;;;;;;;;;;5083547;28;20086;-70
2021/07/31 11:18:55;;;;;;;32.70;18.20;;;;;;;;;;5072914;28;20040;-68
2021/07/31 11:21:49;;;;;;;32.50;16.30;;;;;;;;;;5096749;28;20036;-68
2021/07/31 11:24:18;;;;;;;26.60;12.70;;;;;;;;;;5086330;28;20126;-68
2021/07/31 11:26:52;;;;;;;23.50;11.82;;;;;;;;;;5086299;28;20085;-68
2021/07/31 11:29:23;;;;;;;21.65;10.75;;;;;;;;;;5080568;28;20044;-72
2021/07/31 11:32:00;;;;;;;21.40;12.27;;;;;;;;;;5083457;28;20032;-68
2021/07/31 11:34:27;;;;;;;19.10;11.57;;;;;;;;;;5094727;28;20123;-68
2021/07/31 11:36:58;;;;;;;21.92;12.35;;;;;;;;;;5087920;28;20056;-69
2021/07/31 11:39:25;;;;;;;17.95;12.32;;;;;;;;;;5083535;28;20044;-69
2021/07/31 11:41:57;;;;;;;23.05;12.32;;;;;;;;;;5078568;28;20048;-74
2021/07/31 11:44:27;;;;;;;16.63;10.60;;;;;;;;;;5043564;28;20051;-70
2021/07/31 11:46:54;;;;;;;22.15;10.95;;;;;;;;;;5081036;28;20048;-73
2021/07/31 11:49:37;;;;;;;14.25;9.85;;;;;;;;;;5067352;28;20130;-69
2021/07/31 11:52:09;;;;;;;14.35;9.48;;;;;;;;;;5099385;28;20110;-69
2021/07/31 11:54:41;;;;;;;14.15;8.80;;;;;;;;;;5088877;28;20047;-68
2021/07/31 11:57:08;;;;;;;17.48;9.10;;;;;;;;;;5106797;28;20046;-69
2021/07/31 11:59:39;;;;;;;16.88;9.73;;;;;;;;;;5107092;28;20055;-71
2021/07/31 12:02:06;;;;;;;17.98;10.10;;;;;;;;;;5107000;28;20040;-70
2021/07/31 12:04:53;;;;;;;18.15;9.98;;;;;;;;;;5089284;28;20130;-69
2021/07/31 12:07:25;;;;;;;;;;;;;;;;;;5089143;28;20135;-69
2021/07/31 12:10:02;;;;;;;17.70;10.88;;;;;;;;;;5088966;28;19916;-69
2021/07/31 12:12:36;;;;;;;17.00;11.57;;;;;;;;;;5107144;28;20555;-69
2021/07/31 12:15:12;;;;;;;17.50;10.88;;;;;;;;;;5107147;28;20047;-69
2021/07/31 12:17:39;;;;;;;16.20;11.40;;;;;;;;;;5087598;28;20486;-70
2021/07/31 12:20:07;;;;;;;19.92;12.18;;;;;;;;;;5106693;28;20050;-69
2021/07/31 12:22:36;;;;;;;17.90;11.20;;;;;;;;;;5106456;28;20040;-69
2021/07/31 12:25:19;;;;;;;22.05;11.55;;;;;;;;;;5106061;28;20562;-70
2021/07/31 12:28:06;;;;;;;18.88;10.45;;;;;;;;;;5106116;28;20039;-70
2021/07/31 12:30:36;;;;;;;14.00;9.63;;;;;;;;;;5088111;28;20444;-70
2021/07/31 12:33:22;;;;;;;16.05;10.23;;;;;;;;;;5106580;28;20497;-69
2021/07/31 12:36:00;;;;;;;18.13;9.48;;;;;;;;;;5106254;28;20047;-71
2021/07/31 12:38:28;;;;;;;12.35;8.52;;;;;;;;;;5106492;28;20039;-70
2021/07/31 12:41:01;;;;;;;15.57;9.63;;;;;;;;;;5106245;28;20043;-70
2021/07/31 12:43:30;;;;;;;11.90;7.80;;;;;;;;;;5106153;28;20127;-69
2021/07/31 12:45:59;;;;;;;10.43;5.78;;;;;;;;;;5105980;28;20126;-70
2021/07/31 12:48:26;;;;;;;10.32;6.55;;;;;;;;;;5105645;28;20051;-71
2021/07/31 12:50:53;;;;;;;12.85;7.13;;;;;;;;;;5106179;28;20455;-70
2021/07/31 12:53:23;;;;;;;14.13;7.30;;;;;;;;;;5105237;28;20071;-70
2021/07/31 12:55:55;;;;;;;12.80;6.88;;;;;;;;;;5106159;28;20050;-69
2021/07/31 12:58:25;;;;;;;10.68;5.72;;;;;;;;;;5105758;28;20444;-69
2021/07/31 13:00:52;;;;;;;11.07;6.93;;;;;;;;;;5105970;28;20067;-69
2021/07/31 13:03:21;;;;;;;9.40;6.60;;;;;;;;;;5106224;28;20504;-69
2021/07/31 13:05:48;;;;;;;11.23;7.05;;;;;;;;;;5105402;28;20050;-69
2021/07/31 13:08:15;;;;;;;10.52;6.88;;;;;;;;;;5087054;28;20056;-70
2021/07/31 13:10:44;;;;;;;9.63;6.35;;;;;;;;;;5105336;28;20473;-70
2021/07/31 13:13:11;;;;;;;12.80;8.20;;;;;;;;;;5105291;28;20114;-70
2021/07/31 13:15:40;;;;;;;12.63;6.97;;;;;;;;;;5105788;28;20039;-71
2021/07/31 13:18:18;;;;;;;11.48;6.65;;;;;;;;;;5105315;28;20048;-70
2021/07/31 13:20:44;;;;;;;11.60;7.40;;;;;;;;;;5104736;28;20031;-70
2021/07/31 13:23:11;;;;;;;12.65;7.22;;;;;;;;;;5105519;28;20044;-69
2021/07/31 13:25:38;;;;;;;10.60;6.60;;;;;;;;;;5105693;28;20028;-70
2021/07/31 13:28:06;;;;;;;9.35;5.78;;;;;;;;;;5104887;28;20048;-72
2021/07/31 13:30:37;;;;;;;12.45;7.13;;;;;;;;;;5104543;28;20142;-70
2021/07/31 13:33:05;;;;;;;12.82;7.50;;;;;;;;;;5104731;28;20040;-69
2021/07/31 13:35:31;;;;;;;9.68;6.75;;;;;;;;;;5105087;28;20477;-70
2021/07/31 13:37:59;;;;;;;12.27;6.57;;;;;;;;;;5105016;28;20042;-70
2021/07/31 13:40:35;;;;;;;9.48;6.18;;;;;;;;;;5104692;28;20028;-70
2021/07/31 13:43:03;;;;;;;11.10;5.80;;;;;;;;;;5104832;28;20062;-70
2021/07/31 13:45:29;;;;;;;11.00;6.35;;;;;;;;;;5104676;28;20048;-70
2021/07/31 13:47:56;;;;;;;8.32;4.80;;;;;;;;;;5104858;28;20043;-70
2021/07/31 13:50:22;;;;;;;7.10;5.30;;;;;;;;;;5104970;28;20088;-70
2021/07/31 13:52:49;;;;;;;7.55;4.20;;;;;;;;;;5105206;28;20043;-70
2021/07/31 13:55:15;;;;;;;10.48;4.95;;;;;;;;;;5104177;28;20071;-70
2021/07/31 13:57:43;;;;;;;7.45;4.90;;;;;;;;;;5086742;28;20044;-70
2021/07/31 14:00:11;;;;;;;7.95;4.50;;;;;;;;;;5086023;28;20093;-71
2021/07/31 14:02:38;;;;;;;9.88;5.10;;;;;;;;;;5103990;28;20478;-69
2021/07/31 14:05:05;;;;;;;6.45;4.07;;;;;;;;;;5105003;28;20088;-69
2021/07/31 14:07:36;;;;;;;8.23;4.50;;;;;;;;;;5103695;28;20493;-69
2021/07/31 14:10:03;;;;;;;9.40;4.18;;;;;;;;;;5104321;28;20039;-69
2021/07/31 14:12:29;;;;;;;9.63;4.57;;;;;;;;;;5104906;28;20085;-70
2021/07/31 14:14:56;;;;;;;9.32;4.45;;;;;;;;;;5104368;28;20050;-69
2021/07/31 14:17:22;;;;;;;6.78;3.67;;;;;;;;;;5085580;28;20558;-70
2021/07/31 14:19:49;;;;;;;6.68;4.25;;;;;;;;;;5104337;28;20039;-71
2021/07/31 14:22:15;;;;;;;8.18;4.80;;;;;;;;;;5104254;28;20094;-71
2021/07/31 14:24:42;;;;;;;7.15;4.13;;;;;;;;;;5104740;28;20470;-70
2021/07/31 14:27:09;;;;;;;5.55;3.85;;;;;;;;;;5085797;28;20059;-70
2021/07/31 14:29:38;;;;;;;12.70;4.25;;;;;;;;;;5086265;28;20114;-70
2021/07/31 14:32:05;;;;;;;6.68;3.60;;;;;;;;;;5086441;28;20062;-69
2021/07/31 14:34:32;;;;;;;6.22;3.25;;;;;;;;;;5085855;28;20054;-71